Thunder radar more information blitzortung!


Radar de pluja more information rain snow radar


Visita la nostra xarxa de llocs de meteo:

Template documentation
and downloads

And another site



No particular awareness of the weather is required.    There are no Weather-warnings

Pagina Historial Weather Underground text

Diari Resum Octubre 23, 2017 Unitats:  Tant    Imperial   Mètric
« Previous Dia
SegĂźent Dia »
Diari Setmana Mensual Anual Personalitzada
  Maxima: Minima: Media:
Temperatura: 72.3 °F /  22.4 °C 49.6 °F /  9.8 °C 61.2 °F /  16.2 °C
Punt de rosada: 51.6 °F /  10.9 °C 41 °F /  5.0 °C 45.5 °F /  7.5 °C
Humitat: 74 % 44 % 57 %
Wind Speed: 8.1 mph /  13.0 km/h - 2.1 mph /  3.4 km/h
RĂ fegues de vent: 8.1 mph /  13.0 km/h - -
Vent:- - South
Pression baro: 30.3 in /  1027.0 hPa 30.2 in /  1021.9 hPa -
Precipitacions: 0 in /  0.0 mm    
Historical Graphs
 
 
Dades de taula per Octubre 23, 2017
Temps Temperatura Punt de rosada Pression baro Vent Wind Speed RĂ fegues de vent Humitat Rainfall Rate (Hourly)
00:01 55.6 °F /  13.1 °C 41.9 °F /  5.5 °C 30.3 in /  1024.9 hPa WSW 2.3 mph /  3.7 km/h   60 % 0 in /  0.0 mm
00:06 55.8 °F /  13.2 °C 41.5 °F /  5.3 °C 30.3 in /  1024.9 hPa West 2.3 mph /  3.7 km/h 2.3 mph /  3.7 km/h 59 % 0 in /  0.0 mm
01:55 51.4 °F /  10.8 °C 41.5 °F /  5.3 °C 30.3 in /  1026.0 hPa Calm   1 mph /  1.6 km/h 69 % 0 in /  0.0 mm
02:05 51.1 °F /  10.6 °C 41.4 °F /  5.2 °C 30.3 in /  1026.0 hPa Calm   1 mph /  1.6 km/h 69 % 0 in /  0.0 mm
02:15 50.7 °F /  10.4 °C 41.4 °F /  5.2 °C 30.3 in /  1026.0 hPa West 1 mph /  1.6 km/h 1 mph /  1.6 km/h 70 % 0 in /  0.0 mm
02:25 50.5 °F /  10.3 °C 41.2 °F /  5.1 °C 30.3 in /  1026.0 hPa Calm     70 % 0 in /  0.0 mm
02:35 50.4 °F /  10.2 °C 41.4 °F /  5.2 °C 30.3 in /  1026.0 hPa Calm     71 % 0 in /  0.0 mm
02:45 50.2 °F /  10.1 °C 41.2 °F /  5.1 °C 30.3 in /  1026.0 hPa Calm   2 mph /  3.2 km/h 71 % 0 in /  0.0 mm
02:55 50 °F /  10.0 °C 41 °F /  5.0 °C 30.3 in /  1026.0 hPa Calm   1 mph /  1.6 km/h 71 % 0 in /  0.0 mm
03:05 49.6 °F /  9.8 °C 41 °F /  5.0 °C 30.3 in /  1026.0 hPa NW 1 mph /  1.6 km/h 2 mph /  3.2 km/h 72 % 0 in /  0.0 mm
03:15 49.6 °F /  9.8 °C 41 °F /  5.0 °C 30.3 in /  1026.0 hPa Calm   1 mph /  1.6 km/h 72 % 0 in /  0.0 mm
03:25 49.6 °F /  9.8 °C 41 °F /  5.0 °C 30.3 in /  1026.0 hPa Calm     72 % 0 in /  0.0 mm
03:35 49.6 °F /  9.8 °C 41.4 °F /  5.2 °C 30.3 in /  1026.0 hPa WNW 1 mph /  1.6 km/h 1 mph /  1.6 km/h 73 % 0 in /  0.0 mm
03:45 49.8 °F /  9.9 °C 41.5 °F /  5.3 °C 30.3 in /  1026.0 hPa West 1 mph /  1.6 km/h 1 mph /  1.6 km/h 73 % 0 in /  0.0 mm
03:55 51.4 °F /  10.8 °C 43.3 °F /  6.3 °C 30.3 in /  1026.0 hPa Calm   1 mph /  1.6 km/h 74 % 0 in /  0.0 mm
04:05 52.5 °F /  11.4 °C 43.9 °F /  6.6 °C 30.3 in /  1024.9 hPa North 2 mph /  3.2 km/h 3 mph /  4.8 km/h 72 % 0 in /  0.0 mm
04:15 53.2 °F /  11.8 °C 43.7 °F /  6.5 °C 30.3 in /  1026.0 hPa NNW 1 mph /  1.6 km/h 2 mph /  3.2 km/h 70 % 0 in /  0.0 mm
04:25 54 °F /  12.2 °C 44.1 °F /  6.7 °C 30.3 in /  1026.0 hPa North 1 mph /  1.6 km/h 2 mph /  3.2 km/h 69 % 0 in /  0.0 mm
04:35 54.9 °F /  12.7 °C 45 °F /  7.2 °C 30.3 in /  1026.0 hPa NNE 1 mph /  1.6 km/h 1 mph /  1.6 km/h 69 % 0 in /  0.0 mm
04:45 55.2 °F /  12.9 °C 44.8 °F /  7.1 °C 30.3 in /  1026.0 hPa Calm   2 mph /  3.2 km/h 68 % 0 in /  0.0 mm
04:55 55.9 °F /  13.3 °C 45.5 °F /  7.5 °C 30.3 in /  1026.0 hPa North 1 mph /  1.6 km/h 2 mph /  3.2 km/h 68 % 0 in /  0.0 mm
05:05 55.4 °F /  13.0 °C 44.6 °F /  7.0 °C 30.3 in /  1026.0 hPa NE 2 mph /  3.2 km/h 3 mph /  4.8 km/h 67 % 0 in /  0.0 mm
05:15 55.8 °F /  13.2 °C 45 °F /  7.2 °C 30.3 in /  1027.0 hPa NE 2 mph /  3.2 km/h 3 mph /  4.8 km/h 67 % 0 in /  0.0 mm
10:24 56.1 °F /  13.4 °C 45 °F /  7.2 °C 30.3 in /  1027.0 hPa North 2.9 mph /  4.7 km/h 2.9 mph /  4.7 km/h 66 % 0 in /  0.0 mm
10:27 56.3 °F /  13.5 °C 45.1 °F /  7.3 °C 30.3 in /  1027.0 hPa ENE 3.5 mph /  5.6 km/h 3.5 mph /  5.6 km/h 66 % 0 in /  0.0 mm
10:32 57 °F /  13.9 °C 45.9 °F /  7.7 °C 30.3 in /  1027.0 hPa WNW 3.5 mph /  5.6 km/h 3.5 mph /  5.6 km/h 66 % 0 in /  0.0 mm
10:37 56.8 °F /  13.8 °C 45.7 °F /  7.6 °C 30.3 in /  1027.0 hPa NE 4.6 mph /  7.4 km/h 4.6 mph /  7.4 km/h 66 % 0 in /  0.0 mm
10:42 56.7 °F /  13.7 °C 45 °F /  7.2 °C 30.3 in /  1026.0 hPa ENE 4.6 mph /  7.4 km/h 4.6 mph /  7.4 km/h 65 % 0 in /  0.0 mm
10:47 57.2 °F /  14.0 °C 45.5 °F /  7.5 °C 30.3 in /  1026.0 hPa NNE 4.6 mph /  7.4 km/h 4.6 mph /  7.4 km/h 65 % 0 in /  0.0 mm
10:52 56.8 °F /  13.8 °C 45.1 °F /  7.3 °C 30.3 in /  1026.0 hPa NNE 4.6 mph /  7.4 km/h 4.6 mph /  7.4 km/h 65 % 0 in /  0.0 mm
10:57 57 °F /  13.9 °C 45 °F /  7.2 °C 30.3 in /  1026.0 hPa NE 4.6 mph /  7.4 km/h 4.6 mph /  7.4 km/h 64 % 0 in /  0.0 mm
11:02 57.9 °F /  14.4 °C 46.2 °F /  7.9 °C 30.3 in /  1026.0 hPa ESE 3.5 mph /  5.6 km/h 3.5 mph /  5.6 km/h 65 % 0 in /  0.0 mm
11:07 59 °F /  15.0 °C 47.1 °F /  8.4 °C 30.3 in /  1026.0 hPa NNE 1.2 mph /  1.9 km/h   65 % 0 in /  0.0 mm
11:12 58.6 °F /  14.8 °C 46.6 °F /  8.1 °C 30.3 in /  1026.0 hPa ENE 3.5 mph /  5.6 km/h 3.5 mph /  5.6 km/h 64 % 0 in /  0.0 mm
11:17 58.6 °F /  14.8 °C 46.6 °F /  8.1 °C 30.3 in /  1026.0 hPa NNW 4.6 mph /  7.4 km/h 4.6 mph /  7.4 km/h 64 % 0 in /  0.0 mm
11:22 59.2 °F /  15.1 °C 46.9 °F /  8.3 °C 30.3 in /  1026.0 hPa NE 3.5 mph /  5.6 km/h 3.5 mph /  5.6 km/h 64 % 0 in /  0.0 mm
11:27 59.5 °F /  15.3 °C 46.9 °F /  8.3 °C 30.3 in /  1026.0 hPa NE 2.3 mph /  3.7 km/h 2.3 mph /  3.7 km/h 63 % 0 in /  0.0 mm
11:32 59.5 °F /  15.3 °C 46.9 °F /  8.3 °C 30.3 in /  1026.0 hPa NNE 4.6 mph /  7.4 km/h 4.6 mph /  7.4 km/h 63 % 0 in /  0.0 mm
11:37 59.5 °F /  15.3 °C 46.9 °F /  8.3 °C 30.3 in /  1026.0 hPa ENE 2.4 mph /  3.9 km/h 2.4 mph /  3.9 km/h 63 % 0 in /  0.0 mm
11:42 59.5 °F /  15.3 °C 46.6 °F /  8.1 °C 30.3 in /  1026.0 hPa East 2.9 mph /  4.7 km/h 2.9 mph /  4.7 km/h 62 % 0 in /  0.0 mm
11:47 59.9 °F /  15.5 °C 46.8 °F /  8.2 °C 30.3 in /  1026.0 hPa ENE 5.8 mph /  9.3 km/h 5.8 mph /  9.3 km/h 62 % 0 in /  0.0 mm
11:52 60.3 °F /  15.7 °C 47.1 °F /  8.4 °C 30.3 in /  1026.0 hPa NNE 3.6 mph /  5.8 km/h 3.6 mph /  5.8 km/h 62 % 0 in /  0.0 mm
11:57 60.4 °F /  15.8 °C 47.5 °F /  8.6 °C 30.3 in /  1026.0 hPa NNE 2.6 mph /  4.2 km/h 2.6 mph /  4.2 km/h 62 % 0 in /  0.0 mm
12:02 61.2 °F /  16.2 °C 48 °F /  8.9 °C 30.3 in /  1026.0 hPa East 1.2 mph /  1.9 km/h   62 % 0 in /  0.0 mm
12:07 62.1 °F /  16.7 °C 48.9 °F /  9.4 °C 30.3 in /  1026.0 hPa ESE 2.3 mph /  3.7 km/h 2.3 mph /  3.7 km/h 62 % 0 in /  0.0 mm
12:12 62.8 °F /  17.1 °C 48.7 °F /  9.3 °C 30.3 in /  1026.0 hPa East 2.3 mph /  3.7 km/h 2.3 mph /  3.7 km/h 60 % 0 in /  0.0 mm
12:17 63 °F /  17.2 °C 48.4 °F /  9.1 °C 30.3 in /  1026.0 hPa ESE 3.5 mph /  5.6 km/h 3.5 mph /  5.6 km/h 59 % 0 in /  0.0 mm
12:22 63.3 °F /  17.4 °C 48.4 °F /  9.1 °C 30.3 in /  1026.0 hPa ESE 2.3 mph /  3.7 km/h 2.4 mph /  3.9 km/h 58 % 0 in /  0.0 mm
12:27 63.5 °F /  17.5 °C 48.9 °F /  9.4 °C 30.3 in /  1026.0 hPa WSW 2.3 mph /  3.7 km/h 2.3 mph /  3.7 km/h 59 % 0 in /  0.0 mm
12:32 63.7 °F /  17.6 °C 48.6 °F /  9.2 °C 30.3 in /  1026.0 hPa East 3.5 mph /  5.6 km/h 3.5 mph /  5.6 km/h 58 % 0 in /  0.0 mm
12:37 63.1 °F /  17.3 °C 48 °F /  8.9 °C 30.3 in /  1026.0 hPa ESE 3.5 mph /  5.6 km/h 3.5 mph /  5.6 km/h 58 % 0 in /  0.0 mm
12:42 64 °F /  17.8 °C 49.5 °F /  9.7 °C 30.3 in /  1026.0 hPa ESE 3.3 mph /  5.3 km/h 3.3 mph /  5.3 km/h 59 % 0 in /  0.0 mm
12:47 63.7 °F /  17.6 °C 48.6 °F /  9.2 °C 30.3 in /  1026.0 hPa NNE 3.5 mph /  5.6 km/h 3.5 mph /  5.6 km/h 58 % 0 in /  0.0 mm
12:52 63.7 °F /  17.6 °C 48.2 °F /  9.0 °C 30.3 in /  1026.0 hPa NNE 3.5 mph /  5.6 km/h 3.5 mph /  5.6 km/h 57 % 0 in /  0.0 mm
12:53 63.7 °F /  17.6 °C 48.2 °F /  9.0 °C 30.3 in /  1026.0 hPa ENE 2.3 mph /  3.7 km/h 2.3 mph /  3.7 km/h 57 % 0 in /  0.0 mm
12:58 63.9 °F /  17.7 °C 48.4 °F /  9.1 °C 30.3 in /  1026.0 hPa East 2.4 mph /  3.9 km/h 2.6 mph /  4.2 km/h 57 % 0 in /  0.0 mm
13:03 64.6 °F /  18.1 °C 48.6 °F /  9.2 °C 30.3 in /  1026.0 hPa NNE 2.3 mph /  3.7 km/h 2.3 mph /  3.7 km/h 56 % 0 in /  0.0 mm
13:08 64.8 °F /  18.2 °C 49.3 °F /  9.6 °C 30.3 in /  1026.0 hPa NE 2.4 mph /  3.9 km/h 2.4 mph /  3.9 km/h 57 % 0 in /  0.0 mm
13:13 65.5 °F /  18.6 °C 49.8 °F /  9.9 °C 30.3 in /  1026.0 hPa NNE 2.9 mph /  4.7 km/h 2.9 mph /  4.7 km/h 57 % 0 in /  0.0 mm
13:18 66.2 °F /  19.0 °C 50 °F /  10.0 °C 30.3 in /  1026.0 hPa NNE 3.5 mph /  5.6 km/h 3.5 mph /  5.6 km/h 56 % 0 in /  0.0 mm
13:23 66.9 °F /  19.4 °C 50.2 °F /  10.1 °C 30.3 in /  1026.0 hPa NNW 5.8 mph /  9.3 km/h 5.8 mph /  9.3 km/h 55 % 0 in /  0.0 mm
13:28 67.3 °F /  19.6 °C 50.5 °F /  10.3 °C 30.3 in /  1024.9 hPa SSE 2.3 mph /  3.7 km/h 2.3 mph /  3.7 km/h 55 % 0 in /  0.0 mm
13:33 68 °F /  20.0 °C 51.3 °F /  10.7 °C 30.3 in /  1024.9 hPa SSW 2.3 mph /  3.7 km/h 2.3 mph /  3.7 km/h 55 % 0 in /  0.0 mm
13:38 68.9 °F /  20.5 °C 51.6 °F /  10.9 °C 30.3 in /  1024.9 hPa SW 4.6 mph /  7.4 km/h 4.6 mph /  7.4 km/h 54 % 0 in /  0.0 mm
13:43 69.1 °F /  20.6 °C 51.3 °F /  10.7 °C 30.2 in /  1023.9 hPa SW 5.8 mph /  9.3 km/h 5.8 mph /  9.3 km/h 53 % 0 in /  0.0 mm
13:48 68.5 °F /  20.3 °C 50.2 °F /  10.1 °C 30.2 in /  1023.9 hPa SSE 5.8 mph /  9.3 km/h 5.8 mph /  9.3 km/h 52 % 0 in /  0.0 mm
13:53 68.7 °F /  20.4 °C 50.9 °F /  10.5 °C 30.2 in /  1023.9 hPa West 4.6 mph /  7.4 km/h 4.6 mph /  7.4 km/h 53 % 0 in /  0.0 mm
13:58 68.2 °F /  20.1 °C 49.8 °F /  9.9 °C 30.2 in /  1023.9 hPa North 3.5 mph /  5.6 km/h 3.5 mph /  5.6 km/h 52 % 0 in /  0.0 mm
14:03 68.5 °F /  20.3 °C 50.2 °F /  10.1 °C 30.2 in /  1023.9 hPa NNW 3.5 mph /  5.6 km/h 3.5 mph /  5.6 km/h 52 % 0 in /  0.0 mm
14:08 69.1 °F /  20.6 °C 50.7 °F /  10.4 °C 30.2 in /  1023.9 hPa West 3.6 mph /  5.8 km/h 3.6 mph /  5.8 km/h 52 % 0 in /  0.0 mm
14:13 69.3 °F /  20.7 °C 50.9 °F /  10.5 °C 30.2 in /  1023.9 hPa SSW 3.1 mph /  5.0 km/h 3.1 mph /  5.0 km/h 52 % 0 in /  0.0 mm
14:18 69.4 °F /  20.8 °C 51.1 °F /  10.6 °C 30.2 in /  1023.9 hPa West 3.8 mph /  6.1 km/h 3.8 mph /  6.1 km/h 52 % 0 in /  0.0 mm
14:23 68.9 °F /  20.5 °C 50.5 °F /  10.3 °C 30.2 in /  1023.9 hPa WNW 3.5 mph /  5.6 km/h 3.5 mph /  5.6 km/h 52 % 0 in /  0.0 mm
14:28 68.7 °F /  20.4 °C 49.8 °F /  9.9 °C 30.2 in /  1023.9 hPa SW 3.5 mph /  5.6 km/h 3.5 mph /  5.6 km/h 51 % 0 in /  0.0 mm
14:33 69.1 °F /  20.6 °C 50.2 °F /  10.1 °C 30.2 in /  1023.9 hPa SSW 4.6 mph /  7.4 km/h 4.6 mph /  7.4 km/h 51 % 0 in /  0.0 mm
14:38 69.3 °F /  20.7 °C 50.4 °F /  10.2 °C 30.2 in /  1023.9 hPa SW 4.6 mph /  7.4 km/h 4.6 mph /  7.4 km/h 51 % 0 in /  0.0 mm
14:43 69.3 °F /  20.7 °C 50.4 °F /  10.2 °C 30.2 in /  1023.9 hPa SW 4.6 mph /  7.4 km/h 4.6 mph /  7.4 km/h 51 % 0 in /  0.0 mm
14:48 69.3 °F /  20.7 °C 50.4 °F /  10.2 °C 30.2 in /  1023.9 hPa West 4.6 mph /  7.4 km/h 4.6 mph /  7.4 km/h 51 % 0 in /  0.0 mm
14:53 69.4 °F /  20.8 °C 50.5 °F /  10.3 °C 30.2 in /  1023.9 hPa SW 4.6 mph /  7.4 km/h 4.6 mph /  7.4 km/h 51 % 0 in /  0.0 mm
14:58 69.4 °F /  20.8 °C 50 °F /  10.0 °C 30.2 in /  1023.9 hPa West 4.6 mph /  7.4 km/h 4.6 mph /  7.4 km/h 50 % 0 in /  0.0 mm
15:03 70 °F /  21.1 °C 49.8 °F /  9.9 °C 30.2 in /  1023.9 hPa SW 5.8 mph /  9.3 km/h 5.8 mph /  9.3 km/h 49 % 0 in /  0.0 mm
15:08 69.8 °F /  21.0 °C 49.8 °F /  9.9 °C 30.2 in /  1023.9 hPa WSW 5.8 mph /  9.3 km/h 5.8 mph /  9.3 km/h 49 % 0 in /  0.0 mm
15:13 70.3 °F /  21.3 °C 50.4 °F /  10.2 °C 30.2 in /  1022.9 hPa NW 3.5 mph /  5.6 km/h 3.5 mph /  5.6 km/h 49 % 0 in /  0.0 mm
15:18 70.7 °F /  21.5 °C 50.5 °F /  10.3 °C 30.2 in /  1022.9 hPa West 8.1 mph /  13.0 km/h 8.1 mph /  13.0 km/h 49 % 0 in /  0.0 mm
15:23 70.9 °F /  21.6 °C 50.2 °F /  10.1 °C 30.2 in /  1022.9 hPa WSW 3.5 mph /  5.6 km/h 3.5 mph /  5.6 km/h 48 % 0 in /  0.0 mm
15:28 71.2 °F /  21.8 °C 50.5 °F /  10.3 °C 30.2 in /  1022.9 hPa West 3.5 mph /  5.6 km/h 3.5 mph /  5.6 km/h 48 % 0 in /  0.0 mm
15:33 71.1 °F /  21.7 °C 50.4 °F /  10.2 °C 30.2 in /  1022.9 hPa SSW 5.4 mph /  8.7 km/h 5.4 mph /  8.7 km/h 48 % 0 in /  0.0 mm
15:38 71.4 °F /  21.9 °C 50.7 °F /  10.4 °C 30.2 in /  1022.9 hPa SSW 4.6 mph /  7.4 km/h 4.6 mph /  7.4 km/h 48 % 0 in /  0.0 mm
15:43 71.8 °F /  22.1 °C 50.5 °F /  10.3 °C 30.2 in /  1022.9 hPa SSE 2.3 mph /  3.7 km/h 2.3 mph /  3.7 km/h 47 % 0 in /  0.0 mm
15:48 70.9 °F /  21.6 °C 49.6 °F /  9.8 °C 30.2 in /  1022.9 hPa ESE 2.3 mph /  3.7 km/h 2.3 mph /  3.7 km/h 47 % 0 in /  0.0 mm
15:53 71.4 °F /  21.9 °C 50.2 °F /  10.1 °C 30.2 in /  1022.9 hPa South 5.8 mph /  9.3 km/h 5.8 mph /  9.3 km/h 47 % 0 in /  0.0 mm
15:58 71.8 °F /  22.1 °C 50.5 °F /  10.3 °C 30.2 in /  1022.9 hPa NNW 1.4 mph /  2.3 km/h 1.4 mph /  2.3 km/h 47 % 0 in /  0.0 mm
16:03 71.8 °F /  22.1 °C 49.8 °F /  9.9 °C 30.2 in /  1022.9 hPa WSW 3.5 mph /  5.6 km/h 3.5 mph /  5.6 km/h 46 % 0 in /  0.0 mm
16:08 71.4 °F /  21.9 °C 50.2 °F /  10.1 °C 30.2 in /  1022.9 hPa SW 2.3 mph /  3.7 km/h 2.3 mph /  3.7 km/h 47 % 0 in /  0.0 mm
16:13 71.6 °F /  22.0 °C 49.6 °F /  9.8 °C 30.2 in /  1022.9 hPa SW 2.3 mph /  3.7 km/h 2.6 mph /  4.2 km/h 46 % 0 in /  0.0 mm
16:18 72.1 °F /  22.3 °C 50.7 °F /  10.4 °C 30.2 in /  1022.9 hPa WSW 2.3 mph /  3.7 km/h 2.3 mph /  3.7 km/h 47 % 0 in /  0.0 mm
16:23 72.3 °F /  22.4 °C 50.4 °F /  10.2 °C 30.2 in /  1022.9 hPa SW 2.3 mph /  3.7 km/h 2.3 mph /  3.7 km/h 46 % 0 in /  0.0 mm
16:28 72.3 °F /  22.4 °C 50.4 °F /  10.2 °C 30.2 in /  1022.9 hPa West 2.3 mph /  3.7 km/h 2.3 mph /  3.7 km/h 46 % 0 in /  0.0 mm
16:33 72.1 °F /  22.3 °C 50.2 °F /  10.1 °C 30.2 in /  1022.9 hPa NNW 3.5 mph /  5.6 km/h 3.5 mph /  5.6 km/h 46 % 0 in /  0.0 mm
16:38 71.8 °F /  22.1 °C 49.8 °F /  9.9 °C 30.2 in /  1022.9 hPa NW 4.6 mph /  7.4 km/h 4.6 mph /  7.4 km/h 46 % 0 in /  0.0 mm
16:43 71.4 °F /  21.9 °C 49.6 °F /  9.8 °C 30.2 in /  1022.9 hPa West 3.1 mph /  5.0 km/h 3.1 mph /  5.0 km/h 46 % 0 in /  0.0 mm
16:48 71.8 °F /  22.1 °C 49.8 °F /  9.9 °C 30.2 in /  1022.9 hPa WNW 3.1 mph /  5.0 km/h 3.1 mph /  5.0 km/h 46 % 0 in /  0.0 mm
16:53 71.8 °F /  22.1 °C 49.8 °F /  9.9 °C 30.2 in /  1022.9 hPa NNW 3.5 mph /  5.6 km/h 3.5 mph /  5.6 km/h 46 % 0 in /  0.0 mm
16:58 71.4 °F /  21.9 °C 49.6 °F /  9.8 °C 30.2 in /  1021.9 hPa SW 3.6 mph /  5.8 km/h 3.6 mph /  5.8 km/h 46 % 0 in /  0.0 mm
17:03 71.4 °F /  21.9 °C 49.6 °F /  9.8 °C 30.2 in /  1021.9 hPa West 2 mph /  3.2 km/h 2 mph /  3.2 km/h 46 % 0 in /  0.0 mm
17:08 71.6 °F /  22.0 °C 49.6 °F /  9.8 °C 30.2 in /  1021.9 hPa WSW 1.4 mph /  2.3 km/h 1.4 mph /  2.3 km/h 46 % 0 in /  0.0 mm
17:13 71.6 °F /  22.0 °C 49.6 °F /  9.8 °C 30.2 in /  1021.9 hPa WSW 3.5 mph /  5.6 km/h 3.5 mph /  5.6 km/h 46 % 0 in /  0.0 mm
17:18 71.2 °F /  21.8 °C 49.5 °F /  9.7 °C 30.2 in /  1021.9 hPa NW 3.5 mph /  5.6 km/h 3.5 mph /  5.6 km/h 46 % 0 in /  0.0 mm
17:23 71.4 °F /  21.9 °C 49.6 °F /  9.8 °C 30.2 in /  1021.9 hPa NNW 2.3 mph /  3.7 km/h 2.3 mph /  3.7 km/h 46 % 0 in /  0.0 mm
17:28 71.6 °F /  22.0 °C 49.6 °F /  9.8 °C 30.2 in /  1022.9 hPa West 3.5 mph /  5.6 km/h 3.5 mph /  5.6 km/h 46 % 0 in /  0.0 mm
17:33 71.6 °F /  22.0 °C 49.6 °F /  9.8 °C 30.2 in /  1022.9 hPa West 2.2 mph /  3.5 km/h 2.2 mph /  3.5 km/h 46 % 0 in /  0.0 mm
17:39 71.4 °F /  21.9 °C 49.6 °F /  9.8 °C 30.2 in /  1022.9 hPa WSW 2.3 mph /  3.7 km/h 2.3 mph /  3.7 km/h 46 % 0 in /  0.0 mm
17:44 71.2 °F /  21.8 °C 49.5 °F /  9.7 °C 30.2 in /  1022.9 hPa West 2.3 mph /  3.7 km/h 2.3 mph /  3.7 km/h 46 % 0 in /  0.0 mm
17:54 70.7 °F /  21.5 °C 48.4 °F /  9.1 °C 30.2 in /  1022.9 hPa NW 2.2 mph /  3.5 km/h   45 % 0 in /  0.0 mm
17:59 70.2 °F /  21.2 °C 47.8 °F /  8.8 °C 30.2 in /  1022.9 hPa NE 3.5 mph /  5.6 km/h 3.5 mph /  5.6 km/h 45 % 0 in /  0.0 mm
18:04 69.8 °F /  21.0 °C 47.5 °F /  8.6 °C 30.2 in /  1022.9 hPa West 2.4 mph /  3.9 km/h 2.4 mph /  3.9 km/h 45 % 0 in /  0.0 mm
18:09 69.6 °F /  20.9 °C 47.3 °F /  8.5 °C 30.2 in /  1022.9 hPa WSW 2.9 mph /  4.7 km/h 2.9 mph /  4.7 km/h 45 % 0 in /  0.0 mm
18:14 69.3 °F /  20.7 °C 46.9 °F /  8.3 °C 30.2 in /  1022.9 hPa NW 2.3 mph /  3.7 km/h 2.3 mph /  3.7 km/h 45 % 0 in /  0.0 mm
18:19 69.1 °F /  20.6 °C 46.8 °F /  8.2 °C 30.2 in /  1022.9 hPa WNW 4.6 mph /  7.4 km/h 4.6 mph /  7.4 km/h 45 % 0 in /  0.0 mm
18:24 68.7 °F /  20.4 °C 46.6 °F /  8.1 °C 30.2 in /  1022.9 hPa West 2.3 mph /  3.7 km/h 2.3 mph /  3.7 km/h 45 % 0 in /  0.0 mm
18:29 68.4 °F /  20.2 °C 46.2 °F /  7.9 °C 30.2 in /  1022.9 hPa NW 2.3 mph /  3.7 km/h 2.3 mph /  3.7 km/h 45 % 0 in /  0.0 mm
18:34 68 °F /  20.0 °C 45.3 °F /  7.4 °C 30.2 in /  1022.9 hPa WNW 2.3 mph /  3.7 km/h 2.3 mph /  3.7 km/h 44 % 0 in /  0.0 mm
18:39 67.6 °F /  19.8 °C 45 °F /  7.2 °C 30.2 in /  1022.9 hPa West 2.3 mph /  3.7 km/h 2.3 mph /  3.7 km/h 44 % 0 in /  0.0 mm
18:44 67.3 °F /  19.6 °C 44.6 °F /  7.0 °C 30.2 in /  1022.9 hPa WNW 2.3 mph /  3.7 km/h 2.3 mph /  3.7 km/h 44 % 0 in /  0.0 mm
18:49 66.6 °F /  19.2 °C 44.1 °F /  6.7 °C 30.2 in /  1022.9 hPa WNW 2.3 mph /  3.7 km/h 2.3 mph /  3.7 km/h 44 % 0 in /  0.0 mm
18:54 66 °F /  18.9 °C 44.6 °F /  7.0 °C 30.2 in /  1022.9 hPa West 2.6 mph /  4.2 km/h 2.6 mph /  4.2 km/h 46 % 0 in /  0.0 mm
18:59 65.7 °F /  18.7 °C 44.2 °F /  6.8 °C 30.2 in /  1022.9 hPa WNW 2.3 mph /  3.7 km/h 2.3 mph /  3.7 km/h 46 % 0 in /  0.0 mm
19:04 65.1 °F /  18.4 °C 43.9 °F /  6.6 °C 30.2 in /  1022.9 hPa NE 2.3 mph /  3.7 km/h 2.3 mph /  3.7 km/h 46 % 0 in /  0.0 mm
19:09 64.8 °F /  18.2 °C 43.5 °F /  6.4 °C 30.2 in /  1023.9 hPa NE 2.3 mph /  3.7 km/h 2.3 mph /  3.7 km/h 46 % 0 in /  0.0 mm
19:14 64.2 °F /  17.9 °C 43 °F /  6.1 °C 30.2 in /  1023.9 hPa West 2.3 mph /  3.7 km/h 2.3 mph /  3.7 km/h 46 % 0 in /  0.0 mm
19:19 63.7 °F /  17.6 °C 43.2 °F /  6.2 °C 30.2 in /  1023.9 hPa NE 2.3 mph /  3.7 km/h 2.3 mph /  3.7 km/h 47 % 0 in /  0.0 mm
19:24 63.3 °F /  17.4 °C 42.6 °F /  5.9 °C 30.2 in /  1023.9 hPa ENE 1.4 mph /  2.3 km/h 1.4 mph /  2.3 km/h 47 % 0 in /  0.0 mm
19:25 55.4 °F /  13.0 °C 43 °F /  6.1 °C 30.2 in /  1023.9 hPa Calm   1 mph /  1.6 km/h 63 % 0 in /  0.0 mm
19:29 63 °F /  17.2 °C 42.4 °F /  5.8 °C 30.2 in /  1023.9 hPa NNE 2.3 mph /  3.7 km/h 2.3 mph /  3.7 km/h 47 % 0 in /  0.0 mm
19:34 62.8 °F /  17.1 °C 42.8 °F /  6.0 °C 30.2 in /  1023.9 hPa West 1.2 mph /  1.9 km/h   48 % 0 in /  0.0 mm
19:35 55.2 °F /  12.9 °C 42.8 °F /  6.0 °C 30.2 in /  1023.9 hPa WNW 1 mph /  1.6 km/h 2 mph /  3.2 km/h 63 % 0 in /  0.0 mm
19:39 62.4 °F /  16.9 °C 43 °F /  6.1 °C 30.2 in /  1023.9 hPa NNE 2.3 mph /  3.7 km/h 2.3 mph /  3.7 km/h 49 % 0 in /  0.0 mm
19:44 62.1 °F /  16.7 °C 42.6 °F /  5.9 °C 30.2 in /  1023.9 hPa North 2.3 mph /  3.7 km/h 2.3 mph /  3.7 km/h 49 % 0 in /  0.0 mm
19:45 55 °F /  12.8 °C 43.2 °F /  6.2 °C 30.2 in /  1023.9 hPa Calm   2 mph /  3.2 km/h 64 % 0 in /  0.0 mm
19:49 61.9 °F /  16.6 °C 43 °F /  6.1 °C 30.2 in /  1023.9 hPa WNW 2.3 mph /  3.7 km/h 2.3 mph /  3.7 km/h 50 % 0 in /  0.0 mm
19:54 61.7 °F /  16.5 °C 43 °F /  6.1 °C 30.2 in /  1023.9 hPa NW 2.3 mph /  3.7 km/h 2.3 mph /  3.7 km/h 50 % 0 in /  0.0 mm
19:55 54.7 °F /  12.6 °C 42.6 °F /  5.9 °C 30.2 in /  1023.9 hPa Calm     64 % 0 in /  0.0 mm
19:59 61.5 °F /  16.4 °C 42.6 °F /  5.9 °C 30.2 in /  1023.9 hPa SSW 1.4 mph /  2.3 km/h 1.4 mph /  2.3 km/h 50 % 0 in /  0.0 mm
20:04 61.2 °F /  16.2 °C 43 °F /  6.1 °C 30.2 in /  1023.9 hPa WSW 1.2 mph /  1.9 km/h   51 % 0 in /  0.0 mm
20:05 54.3 °F /  12.4 °C 42.8 °F /  6.0 °C 30.2 in /  1023.9 hPa Calm     65 % 0 in /  0.0 mm
20:09 60.8 °F /  16.0 °C 42.4 °F /  5.8 °C 30.2 in /  1023.9 hPa SW 2.6 mph /  4.2 km/h 2.6 mph /  4.2 km/h 51 % 0 in /  0.0 mm
20:14 60.4 °F /  15.8 °C 42.3 °F /  5.7 °C 30.2 in /  1023.9 hPa SW 2.6 mph /  4.2 km/h 2.6 mph /  4.2 km/h 51 % 0 in /  0.0 mm
20:15 53.8 °F /  12.1 °C 42.3 °F /  5.7 °C 30.2 in /  1023.9 hPa WNW 1 mph /  1.6 km/h 2 mph /  3.2 km/h 65 % 0 in /  0.0 mm
20:19 60.3 °F /  15.7 °C 42.1 °F /  5.6 °C 30.2 in /  1023.9 hPa SW 2.3 mph /  3.7 km/h 2.3 mph /  3.7 km/h 51 % 0 in /  0.0 mm
20:24 60.1 °F /  15.6 °C 42.4 °F /  5.8 °C 30.2 in /  1023.9 hPa Calm     52 % 0 in /  0.0 mm
20:25 53.8 °F /  12.1 °C 42.6 °F /  5.9 °C 30.2 in /  1023.9 hPa Calm   2 mph /  3.2 km/h 66 % 0 in /  0.0 mm
20:29 60.1 °F /  15.6 °C 42.4 °F /  5.8 °C 30.2 in /  1023.9 hPa SW 1.4 mph /  2.3 km/h 1.4 mph /  2.3 km/h 52 % 0 in /  0.0 mm
20:34 60.3 °F /  15.7 °C 42.6 °F /  5.9 °C 30.2 in /  1023.9 hPa WSW 1.2 mph /  1.9 km/h 1.2 mph /  1.9 km/h 52 % 0 in /  0.0 mm
20:35 53.2 °F /  11.8 °C 41.7 °F /  5.4 °C 30.2 in /  1023.9 hPa WSW 2 mph /  3.2 km/h 2 mph /  3.2 km/h 65 % 0 in /  0.0 mm
20:39 60.1 °F /  15.6 °C 42.4 °F /  5.8 °C 30.3 in /  1024.9 hPa WSW 2.3 mph /  3.7 km/h 2.3 mph /  3.7 km/h 52 % 0 in /  0.0 mm
20:44 59.7 °F /  15.4 °C 42.6 °F /  5.9 °C 30.3 in /  1024.9 hPa WSW 2.4 mph /  3.9 km/h 2.4 mph /  3.9 km/h 53 % 0 in /  0.0 mm
20:45 52.9 °F /  11.6 °C 41.7 °F /  5.4 °C 30.3 in /  1024.9 hPa Calm   2 mph /  3.2 km/h 66 % 0 in /  0.0 mm
20:49 59.5 °F /  15.3 °C 42.4 °F /  5.8 °C 30.3 in /  1024.9 hPa SW 2.3 mph /  3.7 km/h 2.3 mph /  3.7 km/h 53 % 0 in /  0.0 mm
20:54 59.4 °F /  15.2 °C 42.3 °F /  5.7 °C 30.2 in /  1023.9 hPa WSW 1.6 mph /  2.6 km/h   53 % 0 in /  0.0 mm
20:55 53.1 °F /  11.7 °C 42.4 °F /  5.8 °C 30.3 in /  1024.9 hPa WSW 1 mph /  1.6 km/h 2 mph /  3.2 km/h 67 % 0 in /  0.0 mm
20:59 59.4 °F /  15.2 °C 42.6 °F /  5.9 °C 30.2 in /  1023.9 hPa WSW 1.2 mph /  1.9 km/h 1.2 mph /  1.9 km/h 54 % 0 in /  0.0 mm
21:04 59.2 °F /  15.1 °C 42.4 °F /  5.8 °C 30.2 in /  1023.9 hPa Calm     54 % 0 in /  0.0 mm
21:05 52.9 °F /  11.6 °C 42.3 °F /  5.7 °C 30.2 in /  1023.9 hPa Calm   2 mph /  3.2 km/h 67 % 0 in /  0.0 mm
21:09 59.2 °F /  15.1 °C 42.4 °F /  5.8 °C 30.2 in /  1023.9 hPa Calm     54 % 0 in /  0.0 mm
21:14 59 °F /  15.0 °C 42.4 °F /  5.8 °C 30.2 in /  1023.9 hPa WSW 1.2 mph /  1.9 km/h   54 % 0 in /  0.0 mm
21:15 52.9 °F /  11.6 °C 42.6 °F /  5.9 °C 30.2 in /  1023.9 hPa Calm   2 mph /  3.2 km/h 68 % 0 in /  0.0 mm
21:19 58.6 °F /  14.8 °C 42.4 °F /  5.8 °C 30.2 in /  1023.9 hPa Calm     55 % 0 in /  0.0 mm
21:24 58.6 °F /  14.8 °C 42.4 °F /  5.8 °C 30.2 in /  1023.9 hPa Calm     55 % 0 in /  0.0 mm
21:25 52.9 °F /  11.6 °C 43 °F /  6.1 °C 30.2 in /  1023.9 hPa Calm   1 mph /  1.6 km/h 69 % 0 in /  0.0 mm
21:29 58.6 °F /  14.8 °C 43 °F /  6.1 °C 30.2 in /  1023.9 hPa North 1.2 mph /  1.9 km/h 1.4 mph /  2.3 km/h 56 % 0 in /  0.0 mm
21:34 58.6 °F /  14.8 °C 43 °F /  6.1 °C 30.2 in /  1023.9 hPa Calm     56 % 0 in /  0.0 mm
21:35 52.7 °F /  11.5 °C 42.8 °F /  6.0 °C 30.2 in /  1023.9 hPa NE 1 mph /  1.6 km/h 2 mph /  3.2 km/h 69 % 0 in /  0.0 mm
21:39 58.6 °F /  14.8 °C 43 °F /  6.1 °C 30.2 in /  1023.9 hPa Calm     56 % 0 in /  0.0 mm
21:44 58.3 °F /  14.6 °C 42.6 °F /  5.9 °C 30.2 in /  1023.9 hPa Calm     56 % 0 in /  0.0 mm
21:45 52.5 °F /  11.4 °C 42.6 °F /  5.9 °C 30.2 in /  1023.9 hPa Calm   1 mph /  1.6 km/h 69 % 0 in /  0.0 mm
21:49 58.3 °F /  14.6 °C 43.2 °F /  6.2 °C 30.2 in /  1023.9 hPa Calm     57 % 0 in /  0.0 mm
21:54 58.1 °F /  14.5 °C 43 °F /  6.1 °C 30.2 in /  1023.9 hPa WSW 2.3 mph /  3.7 km/h 2.3 mph /  3.7 km/h 57 % 0 in /  0.0 mm
21:55 52 °F /  11.1 °C 42.4 °F /  5.8 °C 30.2 in /  1023.9 hPa Calm   1 mph /  1.6 km/h 70 % 0 in /  0.0 mm
21:59 57.4 °F /  14.1 °C 42.3 °F /  5.7 °C 30.2 in /  1023.9 hPa WSW 2 mph /  3.2 km/h 2 mph /  3.2 km/h 57 % 0 in /  0.0 mm
22:04 57.2 °F /  14.0 °C 42.1 °F /  5.6 °C 30.2 in /  1023.9 hPa SW 2.3 mph /  3.7 km/h 2.4 mph /  3.9 km/h 57 % 0 in /  0.0 mm
22:05 51.6 °F /  10.9 °C 41.7 °F /  5.4 °C 30.2 in /  1023.9 hPa Calm   2 mph /  3.2 km/h 69 % 0 in /  0.0 mm
22:09 57.2 °F /  14.0 °C 42.4 °F /  5.8 °C 30.2 in /  1023.9 hPa SW 1.4 mph /  2.3 km/h 1.4 mph /  2.3 km/h 58 % 0 in /  0.0 mm
22:14 57.2 °F /  14.0 °C 42.4 °F /  5.8 °C 30.2 in /  1023.9 hPa SW 1.2 mph /  1.9 km/h 1.2 mph /  1.9 km/h 58 % 0 in /  0.0 mm
22:15 51.8 °F /  11.0 °C 42.3 °F /  5.7 °C 30.2 in /  1023.9 hPa Calm     70 % 0 in /  0.0 mm
22:19 57.4 °F /  14.1 °C 42.6 °F /  5.9 °C 30.2 in /  1023.9 hPa Calm     58 % 0 in /  0.0 mm
22:24 57.6 °F /  14.2 °C 43 °F /  6.1 °C 30.2 in /  1022.9 hPa NW 2.3 mph /  3.7 km/h 2.3 mph /  3.7 km/h 58 % 0 in /  0.0 mm
22:25 52 °F /  11.1 °C 42.4 °F /  5.8 °C 30.2 in /  1023.9 hPa Calm   2 mph /  3.2 km/h 70 % 0 in /  0.0 mm
22:29 57.6 °F /  14.2 °C 43 °F /  6.1 °C 30.2 in /  1022.9 hPa Calm     58 % 0 in /  0.0 mm
22:34 57.7 °F /  14.3 °C 43.2 °F /  6.2 °C 30.2 in /  1022.9 hPa Calm     58 % 0 in /  0.0 mm
22:35 51.8 °F /  11.0 °C 42.3 °F /  5.7 °C 30.2 in /  1023.9 hPa WSW 1 mph /  1.6 km/h 3 mph /  4.8 km/h 70 % 0 in /  0.0 mm
22:39 57.9 °F /  14.4 °C 43.7 °F /  6.5 °C 30.2 in /  1023.9 hPa Calm     59 % 0 in /  0.0 mm
22:44 57.9 °F /  14.4 °C 43.7 °F /  6.5 °C 30.2 in /  1023.9 hPa Calm     59 % 0 in /  0.0 mm
22:45 51.6 °F /  10.9 °C 42.4 °F /  5.8 °C 30.2 in /  1023.9 hPa Calm   3 mph /  4.8 km/h 71 % 0 in /  0.0 mm
22:49 57.9 °F /  14.4 °C 44.1 °F /  6.7 °C 30.2 in /  1023.9 hPa North 2.3 mph /  3.7 km/h 2.3 mph /  3.7 km/h 60 % 0 in /  0.0 mm
22:54 57.6 °F /  14.2 °C 43.9 °F /  6.6 °C 30.2 in /  1023.9 hPa North 1.2 mph /  1.9 km/h   60 % 0 in /  0.0 mm
22:55 51.6 °F /  10.9 °C 43 °F /  6.1 °C 30.2 in /  1023.9 hPa Calm   1 mph /  1.6 km/h 72 % 0 in /  0.0 mm
22:59 57.6 °F /  14.2 °C 43.9 °F /  6.6 °C 30.2 in /  1023.9 hPa Calm     60 % 0 in /  0.0 mm
23:04 57.4 °F /  14.1 °C 43.5 °F /  6.4 °C 30.2 in /  1023.9 hPa Calm     60 % 0 in /  0.0 mm
23:05 51.6 °F /  10.9 °C 42.4 °F /  5.8 °C 30.2 in /  1023.9 hPa Calm   1 mph /  1.6 km/h 71 % 0 in /  0.0 mm
23:09 57.2 °F /  14.0 °C 43.3 °F /  6.3 °C 30.2 in /  1023.9 hPa Calm     60 % 0 in /  0.0 mm
23:14 57.2 °F /  14.0 °C 43.3 °F /  6.3 °C 30.2 in /  1023.9 hPa Calm     60 % 0 in /  0.0 mm
23:15 51.4 °F /  10.8 °C 42.6 °F /  5.9 °C 30.2 in /  1023.9 hPa NE 1 mph /  1.6 km/h 2 mph /  3.2 km/h 72 % 0 in /  0.0 mm
23:19 57 °F /  13.9 °C 43.7 °F /  6.5 °C 30.2 in /  1023.9 hPa Calm     61 % 0 in /  0.0 mm
23:24 56.5 °F /  13.6 °C 43.2 °F /  6.2 °C 30.2 in /  1023.9 hPa Calm     61 % 0 in /  0.0 mm
23:25 51.4 °F /  10.8 °C 43.2 °F /  6.2 °C 30.2 in /  1023.9 hPa NNE 1 mph /  1.6 km/h 1 mph /  1.6 km/h 73 % 0 in /  0.0 mm
23:29 56.3 °F /  13.5 °C 43 °F /  6.1 °C 30.2 in /  1023.9 hPa WNW 1.2 mph /  1.9 km/h   61 % 0 in /  0.0 mm
23:34 55.9 °F /  13.3 °C 42.6 °F /  5.9 °C 30.2 in /  1023.9 hPa WSW 1.2 mph /  1.9 km/h 1.2 mph /  1.9 km/h 61 % 0 in /  0.0 mm
23:35 51.3 °F /  10.7 °C 43 °F /  6.1 °C 30.2 in /  1023.9 hPa NNE 1 mph /  1.6 km/h 2 mph /  3.2 km/h 73 % 0 in /  0.0 mm
23:39 55.8 °F /  13.2 °C 42.4 °F /  5.8 °C 30.2 in /  1023.9 hPa Calm     61 % 0 in /  0.0 mm
23:44 55.6 °F /  13.1 °C 42.3 °F /  5.7 °C 30.2 in /  1023.9 hPa WSW 2.3 mph /  3.7 km/h 2.3 mph /  3.7 km/h 61 % 0 in /  0.0 mm
23:45 50.5 °F /  10.3 °C 41.7 °F /  5.4 °C 30.2 in /  1023.9 hPa West 2 mph /  3.2 km/h 3 mph /  4.8 km/h 72 % 0 in /  0.0 mm
23:49 55.4 °F /  13.0 °C 42.6 °F /  5.9 °C 30.2 in /  1023.9 hPa North 1.4 mph /  2.3 km/h   62 % 0 in /  0.0 mm
23:54 55.2 °F /  12.9 °C 42.4 °F /  5.8 °C 30.2 in /  1023.9 hPa WSW 1.4 mph /  2.3 km/h 1.4 mph /  2.3 km/h 62 % 0 in /  0.0 mm
23:55 50.4 °F /  10.2 °C 42.1 °F /  5.6 °C 30.2 in /  1023.9 hPa WSW 1 mph /  1.6 km/h 2 mph /  3.2 km/h 73 % 0 in /  0.0 mm
23:59 55.4 °F /  13.0 °C 42.6 °F /  5.9 °C 30.2 in /  1023.9 hPa WSW 2.3 mph /  3.7 km/h 2.3 mph /  3.7 km/h 62 % 0 in /  0.0 mm
Meteo Sesrovires
Elogis d' Weather Underground - 3.75 mb

Guio original per  Jim McMurry - jmcmurry@mwt.net Adaptat per a la plantilla per  Wim van der Kuil - Leuven-Template.eu

Trobareu la nostra informacio del temps tambe a:

Weather Underground

AWEKAS